Time;durP1;ratioP1;P1;durP2;ratioP2;P2;SDS_P1;SDS_P2;PMS_P1;PMS_P2;Temp;Humidity;BMP_temperature;BMP_pressure;BME280_temperature;BME280_humidity;BME280_pressure;Samples;Min_cycle;Max_cycle;Signal;HPM_P1;HPM_P2
2022/06/03 00:02:08;;;;;;;2.38;1.30;;;;;;;19.70;35.11;100022.13;4945352;28;20049;-84
2022/06/03 00:05:15;;;;;;;1.58;1.30;;;;;;;19.52;35.22;100027.06;4999904;28;20092;-84
2022/06/03 00:07:54;;;;;;;1.73;1.20;;;;;;;19.57;35.17;100027.31;4950032;28;20052;-85
2022/06/03 00:10:43;;;;;;;1.10;1.05;;;;;;;19.66;35.08;100018.09;5000507;28;20038;-85
2022/06/03 00:13:42;;;;;;;1.55;1.40;;;;;;;19.65;34.82;100019.13;4985520;28;20041;-85
2022/06/03 00:16:31;;;;;;;2.13;1.10;;;;;;;19.65;35.25;100024.50;4922100;28;20055;-85
2022/06/03 00:19:04;;;;;;;1.48;1.10;;;;;;;19.65;35.29;100013.75;4926638;28;20041;-78
2022/06/03 00:21:42;;;;;;;1.80;1.48;;;;;;;19.58;35.28;100020.91;5002646;28;20077;-80
2022/06/03 00:24:29;;;;;;;1.55;1.38;;;;;;;19.47;35.68;100011.47;5015973;28;20084;-80
2022/06/03 00:26:58;;;;;;;2.30;1.35;;;;;;;19.63;35.23;100010.41;4944570;28;20111;-79
2022/06/03 00:29:37;;;;;;;2.58;1.73;;;;;;;19.68;35.37;99999.91;4982928;28;20069;-77
2022/06/03 00:32:04;;;;;;;1.88;1.35;;;;;;;19.73;35.13;100002.03;4960844;28;20398;-78
2022/06/03 00:34:49;;;;;;;1.98;1.13;;;;;;;19.63;35.17;99991.53;4986486;28;20046;-78
2022/06/03 00:37:28;;;;;;;3.35;1.45;;;;;;;19.65;35.23;99994.88;4959914;28;20120;-77
2022/06/03 00:40:03;;;;;;;1.58;1.48;;;;;;;19.35;35.69;99994.13;4966295;28;20045;-77
2022/06/03 00:43:01;;;;;;;3.47;1.30;;;;;;;19.37;35.83;99999.34;4985853;28;20056;-78
2022/06/03 00:45:28;;;;;;;1.30;1.20;;;;;;;19.45;35.52;99993.81;4960046;28;20049;-77
2022/06/03 00:48:04;;;;;;;2.35;1.50;;;;;;;19.45;35.78;99989.25;4971896;28;20069;-77
2022/06/03 00:50:33;;;;;;;1.85;1.30;;;;;;;19.46;35.64;99992.78;4994918;28;20049;-78
2022/06/03 00:53:14;;;;;;;3.67;1.80;;;;;;;19.48;35.63;99999.66;4998283;28;20056;-78
2022/06/03 00:55:53;;;;;;;1.92;1.15;;;;;;;19.51;35.75;100007.38;4994656;28;20116;-78
2022/06/03 00:58:29;;;;;;;2.33;1.27;;;;;;;19.41;35.92;100011.38;4995112;28;20045;-81
2022/06/03 01:01:28;;;;;;;1.48;1.30;;;;;;;19.42;35.79;100004.97;4992717;28;20077;-85
2022/06/03 01:03:55;;;;;;;2.03;1.40;;;;;;;19.31;35.94;100000.94;4965697;28;20049;-84
2022/06/03 01:06:29;;;;;;;1.33;1.23;;;;;;;18.99;36.63;100007.53;5003659;28;20056;-82
2022/06/03 01:08:56;;;;;;;2.00;1.30;;;;;;;18.96;36.38;100011.44;4956654;28;20057;-84
2022/06/03 01:11:23;;;;;;;2.05;1.10;;;;;;;18.99;36.40;100007.53;4984049;28;20301;-84
2022/06/03 01:14:09;;;;;;;3.13;1.70;;;;;;;19.04;36.28;100010.50;4995910;28;20044;-85
2022/06/03 01:17:13;;;;;;;3.55;1.40;;;;;;;19.17;36.12;100007.16;4955235;28;20038;-85
2022/06/03 01:20:13;;;;;;;1.90;1.27;;;;;;;19.41;35.85;100011.38;4914446;28;20049;-84
2022/06/03 01:23:17;;;;;;;1.92;1.60;;;;;;;19.42;35.74;100011.19;4972419;28;20121;-85
2022/06/03 01:25:43;;;;;;;;;;;;;;;19.39;35.76;100008.88;4935586;28;20111;-85
2022/06/03 01:28:27;;;;;;;1.88;1.13;;;;;;;19.69;35.27;100008.81;5019660;28;20393;-84
2022/06/03 01:31:37;;;;;;;2.75;1.50;;;;;;;19.87;35.21;100016.47;4982158;28;20137;-85
2022/06/03 01:34:15;;;;;;;4.32;1.60;;;;;;;19.99;34.67;100012.25;4958967;28;20128;-84
2022/06/03 01:37:13;;;;;;;1.70;1.60;;;;;;;20.08;34.95;100012.97;4980636;28;20486;-85
2022/06/03 01:40:26;;;;;;;2.97;1.40;;;;;;;20.06;34.75;100007.75;4984293;28;20104;-85
2022/06/03 01:42:59;;;;;;;1.60;1.50;;;;;;;20.17;34.94;100014.47;4924329;28;20425;-84
2022/06/03 01:45:52;;;;;;;2.78;1.35;;;;;;;20.11;34.65;100009.88;4994122;28;20056;-82
2022/06/03 01:48:33;;;;;;;2.03;1.63;;;;;;;20.09;34.03;100001.97;4942625;28;20126;-83
2022/06/03 01:51:21;;;;;;;1.92;1.70;;;;;;;20.11;34.47;100001.78;4990355;28;20480;-84
2022/06/03 01:54:17;;;;;;;2.65;1.73;;;;;;;19.79;34.44;100001.25;4907170;28;20064;-78
2022/06/03 01:57:02;;;;;;;1.45;1.35;;;;;;;19.70;34.50;100005.94;4886083;28;20075;-79
2022/06/03 01:59:47;;;;;;;1.60;1.45;;;;;;;19.86;34.56;100004.03;4910003;29;20443;-79
2022/06/03 02:02:31;;;;;;;4.35;1.45;;;;;;;19.61;34.56;100004.34;4931746;28;20047;-79
2022/06/03 02:05:13;;;;;;;2.33;1.40;;;;;;;19.66;34.53;100006.47;4924833;29;20060;-79
2022/06/03 02:07:55;;;;;;;1.73;1.38;;;;;;;19.33;35.37;100001.53;4914458;29;20067;-80
2022/06/03 02:10:39;;;;;;;2.00;1.60;;;;;;;19.23;35.06;100003.69;4914476;29;20414;-79
2022/06/03 02:13:42;;;;;;;1.83;1.45;;;;;;;19.23;35.19;99992.94;4911966;29;20118;-80
2022/06/03 02:16:14;;;;;;;1.75;1.48;;;;;;;19.34;34.96;99989.78;4920236;28;20515;-80
2022/06/03 02:19:19;;;;;;;1.50;1.40;;;;;;;19.53;34.94;99993.72;4907001;28;20486;-80
2022/06/03 02:21:52;;;;;;;1.98;1.52;;;;;;;19.64;34.98;99995.06;4866083;28;20047;-84
2022/06/03 02:24:40;;;;;;;1.50;1.40;;;;;;;19.75;35.08;99991.09;4945444;28;20058;-79
2022/06/03 02:27:39;;;;;;;1.65;1.40;;;;;;;19.79;34.65;99990.47;4951549;28;20052;-79
2022/06/03 02:30:55;;;;;;;1.48;1.38;;;;;;;19.60;34.53;99991.09;4947052;28;20452;-80
2022/06/03 02:34:06;;;;;;;2.55;1.50;;;;;;;19.61;34.77;99990.06;4897514;28;20120;-80
2022/06/03 02:36:54;;;;;;;2.33;1.60;;;;;;;19.72;34.56;99985.03;4897785;29;20505;-80
2022/06/03 02:39:36;;;;;;;1.45;1.35;;;;;;;19.57;34.15;99986.09;4938446;28;20402;-80
2022/06/03 02:42:28;;;;;;;1.63;1.52;;;;;;;19.46;34.37;99987.41;4955103;28;20037;-80
2022/06/03 02:45:23;;;;;;;1.60;1.50;;;;;;;19.39;34.50;99979.28;5013202;28;20041;-80
2022/06/03 02:47:53;;;;;;;1.60;1.30;;;;;;;19.27;34.97;99986.16;4975415;28;20066;-80
2022/06/03 02:50:38;;;;;;;1.63;1.52;;;;;;;18.98;35.38;99993.25;4953268;28;20509;-80
2022/06/03 02:53:23;;;;;;;1.45;1.35;;;;;;;19.03;35.29;100003.44;4973744;28;20054;-79
2022/06/03 02:56:19;;;;;;;3.17;1.50;;;;;;;18.86;35.53;100000.94;5025409;28;20037;-80
2022/06/03 02:59:37;;;;;;;1.60;1.50;;;;;;;18.82;36.00;99996.13;4995767;28;20048;-80
2022/06/03 03:02:21;;;;;;;3.75;1.40;;;;;;;18.52;36.40;99995.22;4987373;28;20049;-75
2022/06/03 03:05:19;;;;;;;3.10;1.48;;;;;;;18.53;36.41;100003.13;4989755;28;20053;-76
2022/06/03 03:07:58;;;;;;;1.60;1.42;;;;;;;18.55;36.15;99995.72;4975314;28;21008;-76
2022/06/03 03:10:40;;;;;;;1.40;1.30;;;;;;;18.53;36.21;100005.81;4995090;28;20049;-80
2022/06/03 03:13:14;;;;;;;3.47;1.33;;;;;;;18.56;36.23;100004.59;4991287;28;20750;-80
2022/06/03 03:15:59;;;;;;;1.85;1.20;;;;;;;18.57;36.20;100009.81;4992375;28;20045;-79
2022/06/03 03:18:50;;;;;;;1.58;1.40;;;;;;;18.60;36.56;100006.75;4992114;28;20095;-80
2022/06/03 03:21:40;;;;;;;1.52;1.30;;;;;;;18.71;36.40;100007.31;4993510;28;20489;-80
2022/06/03 03:24:36;;;;;;;4.53;1.67;;;;;;;18.87;36.28;100005.28;4945032;28;20045;-80
2022/06/03 03:27:24;;;;;;;1.88;1.30;;;;;;;19.01;36.07;100008.19;4966743;28;20551;-80
2022/06/03 03:30:04;;;;;;;3.25;1.42;;;;;;;19.07;35.99;100002.88;4983895;28;20048;-79
2022/06/03 03:32:49;;;;;;;2.15;1.10;;;;;;;19.14;36.35;100000.28;5003102;28;20108;-78
2022/06/03 03:35:43;;;;;;;1.60;1.50;;;;;;;19.18;36.46;100009.63;4983729;28;20044;-77
2022/06/03 03:38:29;;;;;;;1.45;1.33;;;;;;;19.30;36.13;100005.44;4965494;28;20056;-78
2022/06/03 03:41:20;;;;;;;1.38;1.27;;;;;;;19.33;36.06;100001.53;4980025;28;20060;-78
2022/06/03 03:44:17;;;;;;;1.50;1.35;;;;;;;19.37;36.18;100004.72;4976280;28;20057;-78
2022/06/03 03:47:07;;;;;;;1.75;1.25;;;;;;;19.48;36.07;100012.28;4951650;28;20041;-78
2022/06/03 03:49:55;;;;;;;1.52;1.42;;;;;;;19.82;36.55;100006.28;4959991;28;20041;-81
2022/06/03 03:52:34;;;;;;;1.45;1.27;;;;;;;20.13;36.16;100005.97;4984226;28;20054;-82
2022/06/03 03:55:14;;;;;;;1.40;1.30;;;;;;;20.40;35.81;100006.16;4968578;28;20065;-80
2022/06/03 03:57:54;;;;;;;2.33;1.20;;;;;;;20.47;34.88;100015.16;4951399;28;20057;-78
2022/06/03 04:00:51;;;;;;;2.17;1.50;;;;;;;20.47;34.69;100006.22;4973213;28;20063;-79
2022/06/03 04:03:45;;;;;;;1.60;1.50;;;;;;;20.59;34.73;99999.31;4983285;28;20046;-79
2022/06/03 04:06:31;;;;;;;2.65;1.38;;;;;;;20.27;34.92;100004.19;4991318;28;20041;-81
2022/06/03 04:09:25;;;;;;;2.92;1.33;;;;;;;20.20;35.17;100005.16;4968516;28;20099;-82
2022/06/03 04:12:25;;;;;;;2.47;1.70;;;;;;;20.25;35.30;100002.72;4972030;28;20118;-81
2022/06/03 04:15:17;;;;;;;2.88;1.20;;;;;;;20.20;35.39;99989.00;4986607;28;20041;-81
2022/06/03 04:18:17;;;;;;;3.28;1.40;;;;;;;20.22;35.54;99981.53;4971568;28;20489;-81
2022/06/03 04:21:00;;;;;;;2.78;1.70;;;;;;;20.12;35.59;99989.97;4983578;28;20046;-81
2022/06/03 04:24:13;;;;;;;1.95;1.50;;;;;;;19.71;36.13;99971.75;4972103;28;20133;-83
2022/06/03 04:26:49;;;;;;;2.25;1.35;;;;;;;19.48;36.63;99975.41;4892754;28;20045;-82
2022/06/03 04:29:38;;;;;;;1.60;1.50;;;;;;;19.64;36.32;99978.91;5021022;28;20056;-82
2022/06/03 04:32:25;;;;;;;2.33;1.60;;;;;;;19.56;36.54;99987.09;4968488;28;20046;-75
2022/06/03 04:35:23;;;;;;;1.75;1.45;;;;;;;19.36;37.08;99978.78;4973975;28;20119;-75
2022/06/03 04:38:05;;;;;;;1.77;1.52;;;;;;;19.33;37.46;99971.94;4952735;28;20058;-79
2022/06/03 04:40:59;;;;;;;1.60;1.50;;;;;;;18.97;37.83;99966.53;4993357;28;20044;-81
2022/06/03 04:43:54;;;;;;;2.80;1.45;;;;;;;18.86;38.60;99970.53;4971071;28;20085;-81
2022/06/03 04:46:23;;;;;;;4.05;1.52;;;;;;;18.69;38.48;99971.69;4970314;28;20137;-81
2022/06/03 04:49:24;;;;;;;1.63;1.42;;;;;;;18.61;38.77;99969.94;5012935;28;20045;-81
2022/06/03 04:52:21;;;;;;;1.58;1.48;;;;;;;18.44;39.66;99961.19;4958991;28;20806;-81
2022/06/03 04:55:11;;;;;;;2.92;1.48;;;;;;;18.48;38.96;99965.19;4961274;28;20052;-82
2022/06/03 04:58:05;;;;;;;2.20;1.63;;;;;;;18.52;39.71;99969.19;4935464;28;20046;-81
2022/06/03 05:01:04;;;;;;;;;;;;;;;18.43;39.75;99963.03;4972743;28;20060;-80
2022/06/03 05:03:37;;;;;;;3.47;1.70;;;;;;;18.58;40.12;99968.44;4928474;28;19928;-75
2022/06/03 05:06:47;;;;;;;2.92;1.30;;;;;;;18.29;40.80;99955.78;4966719;28;20045;-76
2022/06/03 05:09:47;;;;;;;1.90;1.70;;;;;;;18.41;40.21;99959.69;4899689;28;20064;-75
2022/06/03 05:12:51;;;;;;;2.35;1.70;;;;;;;18.57;40.37;99957.84;4973153;28;20055;-76
2022/06/03 05:15:47;;;;;;;1.40;1.30;;;;;;;18.68;40.03;99960.09;4949689;28;20042;-75
2022/06/03 05:19:07;;;;;;;1.70;1.60;;;;;;;18.74;40.42;99964.72;4934605;28;20039;-77
2022/06/03 05:22:28;;;;;;;1.70;1.60;;;;;;;18.55;41.28;99959.91;4920947;28;20052;-82
2022/06/03 05:25:25;;;;;;;3.72;1.40;;;;;;;18.77;40.54;99959.00;4907088;28;20039;-82
2022/06/03 05:28:10;;;;;;;2.50;1.65;;;;;;;18.88;39.89;99955.03;4929315;28;20418;-81
2022/06/03 05:30:58;;;;;;;1.65;1.55;;;;;;;18.93;39.70;99958.00;4971593;28;20038;-81
2022/06/03 05:33:34;;;;;;;2.00;1.80;;;;;;;19.03;39.93;99957.69;4967455;28;20045;-80
2022/06/03 05:36:19;;;;;;;1.70;1.52;;;;;;;19.06;39.67;99968.09;4982729;28;20139;-82
2022/06/03 05:39:24;;;;;;;4.47;1.70;;;;;;;18.88;40.40;99957.72;4955742;28;20052;-81
2022/06/03 05:42:28;;;;;;;2.95;1.50;;;;;;;18.91;40.23;99961.91;4958771;28;20065;-81
2022/06/03 05:45:07;;;;;;;1.80;1.70;;;;;;;19.00;40.99;99968.84;4950982;28;20050;-81
2022/06/03 05:47:47;;;;;;;3.40;1.65;;;;;;;19.05;40.24;99961.84;4992643;28;20493;-81
2022/06/03 05:50:32;;;;;;;2.17;1.50;;;;;;;19.22;40.41;99959.78;4964692;28;20073;-81
2022/06/03 05:53:17;;;;;;;2.80;1.67;;;;;;;19.18;41.46;99966.56;4978413;28;20508;-81
2022/06/03 05:56:15;;;;;;;2.90;1.75;;;;;;;19.29;40.61;99957.19;4946811;28;20042;-81
2022/06/03 05:58:44;;;;;;;1.80;1.70;;;;;;;19.38;40.41;99961.41;4947253;28;20049;-77
2022/06/03 06:01:41;;;;;;;4.15;1.75;;;;;;;19.47;39.96;99965.69;5013085;28;20100;-78
2022/06/03 06:04:25;;;;;;;2.35;2.00;;;;;;;19.44;41.04;99959.84;4950523;28;20049;-76
2022/06/03 06:07:04;;;;;;;2.40;1.50;;;;;;;19.45;40.45;99958.81;4956504;28;20057;-77
2022/06/03 06:09:44;;;;;;;1.85;1.50;;;;;;;19.29;40.88;99963.41;5000599;28;20049;-77
2022/06/03 06:12:42;;;;;;;1.85;1.65;;;;;;;19.29;42.01;99966.09;4966990;28;20117;-77
2022/06/03 06:15:42;;;;;;;1.90;1.65;;;;;;;19.25;41.42;99963.97;4944860;28;20075;-76
2022/06/03 06:18:33;;;;;;;2.78;1.58;;;;;;;19.22;41.95;99957.09;4944704;28;20049;-76
2022/06/03 06:21:24;;;;;;;2.30;1.73;;;;;;;19.20;41.51;99947.56;4986507;28;20060;-76
2022/06/03 06:24:13;;;;;;;4.80;1.85;;;;;;;19.41;41.68;99950.28;4988206;28;20041;-77
2022/06/03 06:27:18;;;;;;;2.40;2.10;;;;;;;19.40;42.51;99951.31;4979495;28;20453;-77
2022/06/03 06:30:07;;;;;;;1.90;1.70;;;;;;;19.47;42.73;99943.31;4934919;28;20061;-79
2022/06/03 06:32:52;;;;;;;3.13;1.80;;;;;;;19.57;41.93;99940.31;4956488;28;20418;-76
2022/06/03 06:35:57;;;;;;;4.05;1.90;;;;;;;19.53;42.48;99945.22;4975386;28;20052;-77
2022/06/03 06:38:54;;;;;;;2.30;1.60;;;;;;;19.55;42.08;99948.56;4941866;28;20111;-77
2022/06/03 06:41:45;;;;;;;1.92;1.73;;;;;;;19.44;42.46;99941.00;4978158;28;20441;-77
2022/06/03 06:44:39;;;;;;;2.60;1.90;;;;;;;19.44;43.08;99943.69;4956964;28;20046;-77
2022/06/03 06:47:14;;;;;;;2.70;1.80;;;;;;;19.68;41.79;99932.56;4938674;28;20052;-77
2022/06/03 06:49:51;;;;;;;8.07;1.63;;;;;;;19.61;42.79;99942.41;4951551;28;20054;-77
2022/06/03 06:53:10;;;;;;;2.03;1.70;;;;;;;19.62;42.94;99929.78;4981280;28;20053;-78
2022/06/03 06:55:47;;;;;;;2.40;1.85;;;;;;;19.79;42.79;99930.38;4951985;28;20046;-76
2022/06/03 06:58:42;;;;;;;3.55;1.98;;;;;;;19.95;43.45;99924.72;4951776;28;20042;-76
2022/06/03 07:01:12;;;;;;;3.38;2.25;;;;;;;19.96;42.73;99923.69;4974149;28;20049;-76
2022/06/03 07:03:59;;;;;;;2.58;2.17;;;;;;;19.98;43.04;99927.03;4972897;28;20593;-80
2022/06/03 07:06:34;;;;;;;4.63;2.15;;;;;;;20.01;42.99;99928.50;4980247;28;20065;-75
2022/06/03 07:09:10;;;;;;;2.20;2.00;;;;;;;20.01;44.06;99928.50;4972322;28;20140;-79
2022/06/03 07:11:50;;;;;;;2.50;2.20;;;;;;;20.14;43.31;99934.81;4996800;28;20076;-78
2022/06/03 07:14:20;;;;;;;2.22;1.90;;;;;;;20.24;42.92;99939.88;4968579;28;20041;-75
2022/06/03 07:20:11;;;;;;;3.45;2.28;;;;;;;20.24;43.22;99930.97;4943648;28;20221;-79
2022/06/03 07:22:48;;;;;;;3.42;2.42;;;;;;;20.37;42.88;99920.25;4943931;28;20129;-80
2022/06/03 07:25:21;;;;;;;3.47;2.13;;;;;;;20.51;42.67;99921.19;4984635;28;20049;-79
2022/06/03 07:28:12;;;;;;;2.40;2.20;;;;;;;20.48;42.99;99911.63;4995220;28;20136;-76
2022/06/03 07:30:42;;;;;;;1.95;1.83;;;;;;;20.57;42.96;99907.75;4975540;28;20441;-75
2022/06/03 07:33:17;;;;;;;4.15;2.40;;;;;;;20.60;43.09;99893.88;5003489;28;20140;-76
2022/06/03 07:36:13;;;;;;;5.63;2.55;;;;;;;20.44;43.07;99887.94;4970938;28;20048;-75
2022/06/03 07:38:57;;;;;;;4.00;2.17;;;;;;;20.41;42.93;99882.97;4961557;28;20057;-75
2022/06/03 07:41:33;;;;;;;3.65;2.47;;;;;;;20.47;42.89;99874.88;4982150;28;20046;-76
2022/06/03 07:44:26;;;;;;;4.00;2.70;;;;;;;20.43;44.77;99883.56;4965685;28;20489;-75
2022/06/03 07:47:03;;;;;;;2.92;2.47;;;;;;;20.54;43.82;99870.41;4961967;28;20046;-79
2022/06/03 07:49:31;;;;;;;4.30;2.20;;;;;;;20.66;43.44;99873.38;4957030;28;20056;-79
2022/06/03 07:52:13;;;;;;;2.38;2.15;;;;;;;20.75;43.96;99869.44;5001246;28;20041;-79
2022/06/03 07:54:50;;;;;;;6.50;2.83;;;;;;;20.91;43.31;99864.72;4998342;28;20553;-79
2022/06/03 07:57:21;;;;;;;3.55;2.70;;;;;;;20.83;44.14;99860.34;4982808;28;20555;-79
2022/06/03 07:59:48;;;;;;;3.90;2.40;;;;;;;20.90;43.89;99852.28;4971423;28;20054;-82
2022/06/03 08:02:21;;;;;;;3.05;2.72;;;;;;;20.84;43.79;99853.94;4986041;28;20049;-84
2022/06/03 08:05:10;;;;;;;3.05;2.75;;;;;;;20.93;44.67;99855.41;4988216;28;20057;-84
2022/06/03 08:13:16;;;;;;;6.00;2.60;;;;;;;21.08;44.36;99838.22;4963374;28;20467;-79
2022/06/03 08:15:55;;;;;;;7.28;2.65;;;;;;;21.05;44.84;99844.84;5018039;28;20535;-79
2022/06/03 08:18:22;;;;;;;3.83;2.38;;;;;;;21.22;44.71;99842.63;5010106;28;20042;-79
2022/06/03 08:20:57;;;;;;;5.20;2.35;;;;;;;21.22;45.74;99839.91;4983091;28;20053;-79
2022/06/03 08:23:24;;;;;;;3.97;3.10;;;;;;;21.35;44.93;99826.41;4996081;28;20073;-79
2022/06/03 08:25:55;;;;;;;4.18;2.90;;;;;;;21.39;44.45;99824.97;4996330;28;20053;-79
2022/06/03 08:28:25;;;;;;;4.97;3.00;;;;;;;21.48;44.37;99816.69;4983630;28;20050;-83
2022/06/03 08:30:54;;;;;;;4.82;2.80;;;;;;;21.43;44.98;99818.13;5007012;28;20077;-80
2022/06/03 08:33:31;;;;;;;3.35;2.80;;;;;;;21.49;45.39;99813.78;4998459;28;20124;-84
2022/06/03 08:35:58;;;;;;;3.45;3.15;;;;;;;21.65;44.87;99801.72;4967471;28;20049;-84
2022/06/03 08:38:31;;;;;;;6.32;3.10;;;;;;;21.61;45.02;99801.31;4998430;28;20125;-84
2022/06/03 08:41:25;;;;;;;4.18;3.10;;;;;;;21.61;45.80;99812.13;5013167;28;20048;-84
2022/06/03 08:44:16;;;;;;;5.95;3.03;;;;;;;21.60;46.70;99807.75;4957036;28;20109;-84
2022/06/03 08:46:58;;;;;;;3.88;2.72;;;;;;;21.75;45.36;99809.41;4925739;28;20046;-84
2022/06/03 08:49:30;;;;;;;3.88;2.92;;;;;;;21.81;45.75;99811.28;4955432;28;20069;-84
2022/06/03 08:52:02;;;;;;;4.75;3.58;;;;;;;21.90;44.81;99810.00;4987743;28;20071;-84
2022/06/03 08:54:35;;;;;;;16.85;3.83;;;;;;;21.86;45.69;99814.19;4988690;28;20115;-84
2022/06/03 08:57:18;;;;;;;4.07;3.30;;;;;;;21.77;46.11;99805.44;5012658;28;20041;-84
2022/06/03 08:59:51;;;;;;;3.22;2.92;;;;;;;21.83;46.59;99804.63;5003126;28;20037;-84
2022/06/03 09:02:22;;;;;;;;;;;;;;;21.63;46.44;99812.75;4983576;28;20056;-84
2022/06/03 09:04:58;;;;;;;5.40;3.40;;;;;;;21.83;46.06;99811.88;5001254;28;19921;-84
2022/06/03 09:07:45;;;;;;;4.68;3.35;;;;;;;21.88;46.32;99804.81;5015212;28;20042;-84
2022/06/03 09:10:37;;;;;;;7.88;3.15;;;;;;;21.95;47.07;99803.97;4954203;28;20038;-84
2022/06/03 09:13:15;;;;;;;6.07;3.17;;;;;;;21.97;47.85;99808.13;4988659;28;20048;-84
2022/06/03 09:15:45;;;;;;;4.38;3.60;;;;;;;22.05;46.88;99799.78;5013875;28;20046;-84
2022/06/03 09:18:23;;;;;;;4.65;3.33;;;;;;;22.14;47.29;99788.75;5014636;28;20524;-84
2022/06/03 09:21:06;;;;;;;6.35;3.30;;;;;;;22.17;47.84;99778.34;4988125;28;20158;-84
2022/06/03 09:23:40;;;;;;;6.47;3.78;;;;;;;22.28;46.97;99774.16;4987818;28;20056;-80
2022/06/03 09:26:13;;;;;;;14.02;3.90;;;;;;;22.31;47.20;99781.84;4990037;28;20111;-79
2022/06/03 09:28:39;;;;;;;;;;;;;;;22.22;47.48;99781.25;4999509;28;20049;-79
2022/06/03 09:31:08;;;;;;;6.57;3.78;;;;;;;22.47;46.55;99775.97;5014775;28;20342;-79
2022/06/03 09:33:37;;;;;;;4.40;3.95;;;;;;;22.49;46.86;99765.78;4977574;28;20050;-79
2022/06/03 09:36:07;;;;;;;4.25;3.28;;;;;;;22.59;46.67;99767.16;5010500;28;20091;-79
2022/06/03 09:39:04;;;;;;;4.82;3.70;;;;;;;22.56;47.03;99767.59;4997463;28;20524;-79
2022/06/03 09:41:40;;;;;;;4.20;3.80;;;;;;;22.57;47.43;99764.69;4955107;28;20133;-79
2022/06/03 09:44:10;;;;;;;3.85;3.42;;;;;;;22.67;47.88;99772.31;4977503;28;20128;-80
2022/06/03 09:46:38;;;;;;;3.90;3.55;;;;;;;22.71;48.03;99766.25;4995624;28;20069;-79
2022/06/03 09:49:05;;;;;;;4.20;3.80;;;;;;;22.84;47.30;99759.94;4983598;28;20049;-79
2022/06/03 09:51:56;;;;;;;;;;;;;;;22.71;48.33;99746.50;4979037;28;20048;-79
2022/06/03 09:54:33;;;;;;;4.20;3.88;;;;;;;22.98;46.96;99755.31;4956600;28;20015;-79
2022/06/03 09:57:20;;;;;;;4.68;4.20;;;;;;;22.93;47.84;99755.94;4975060;28;20077;-79
2022/06/03 09:59:57;;;;;;;7.32;3.78;;;;;;;23.00;47.62;99755.09;4979146;28;20100;-80
2022/06/03 10:02:25;;;;;;;4.85;3.75;;;;;;;22.95;47.24;99742.19;4994323;28;20052;-80
2022/06/03 10:04:52;;;;;;;5.82;3.80;;;;;;;22.99;48.06;99745.31;4994669;28;20046;-80
2022/06/03 10:07:19;;;;;;;3.85;3.42;;;;;;;23.07;47.55;99740.44;4973284;28;20104;-79
2022/06/03 10:12:49;;;;;;;4.63;3.38;;;;;;;23.15;48.51;99736.63;4983605;28;20485;-79
2022/06/03 10:15:44;;;;;;;4.43;4.00;;;;;;;23.09;47.87;99724.81;5000792;28;20104;-79
2022/06/03 10:18:28;;;;;;;6.13;3.22;;;;;;;23.16;48.91;99722.88;4970299;28;20041;-77
2022/06/03 10:20:59;;;;;;;4.97;3.92;;;;;;;23.21;47.33;99719.53;4986675;28;20057;-73
2022/06/03 10:23:31;;;;;;;4.15;3.65;;;;;;;23.31;47.68;99719.84;5011275;28;20099;-75
2022/06/03 10:26:25;;;;;;;6.30;3.67;;;;;;;23.32;48.04;99729.63;4941606;28;20042;-74
2022/06/03 10:28:54;;;;;;;3.88;3.33;;;;;;;23.50;47.24;99733.44;4972526;28;20508;-76
2022/06/03 10:31:33;;;;;;;8.02;3.90;;;;;;;23.44;47.40;99737.03;4993381;28;20515;-77
2022/06/03 10:34:10;;;;;;;4.53;3.92;;;;;;;23.51;47.29;99735.06;4993666;28;20137;-74
2022/06/03 10:36:41;;;;;;;3.95;3.40;;;;;;;23.52;47.17;99737.56;4993957;28;20125;-73
2022/06/03 10:39:09;;;;;;;3.70;3.33;;;;;;;23.50;47.77;99730.72;5014769;28;20045;-74
2022/06/03 10:41:43;;;;;;;6.47;3.90;;;;;;;23.56;47.55;99732.53;5009378;28;20097;-76
2022/06/03 10:44:14;;;;;;;4.28;3.33;;;;;;;23.59;47.32;99734.81;4977397;28;20046;-74
2022/06/03 10:46:59;;;;;;;7.07;3.50;;;;;;;23.69;47.38;99727.00;4993774;28;20432;-76
2022/06/03 10:49:29;;;;;;;4.20;3.10;;;;;;;23.75;47.07;99725.28;4985805;28;20079;-74
2022/06/03 11:03:34;;;;;;;7.93;3.67;;;;;;;23.91;46.89;99710.31;4975625;28;20833;-77
2022/06/03 11:06:11;;;;;;;4.47;2.97;;;;;;;23.92;46.76;99707.38;4996050;28;20140;-78
2022/06/03 11:08:49;;;;;;;3.90;3.40;;;;;;;24.01;46.64;99707.91;5002231;28;20070;-78
2022/06/03 11:11:52;;;;;;;3.28;2.97;;;;;;;24.05;47.55;99703.69;5019836;28;20045;-78
2022/06/03 11:14:21;;;;;;;6.53;3.08;;;;;;;24.24;45.94;99704.47;4938955;28;20045;-77
2022/06/03 11:16:50;;;;;;;3.83;3.42;;;;;;;24.32;46.03;99708.75;4999745;28;20539;-80
2022/06/03 11:19:20;;;;;;;5.00;3.55;;;;;;;24.34;45.94;99703.94;5017832;28;20049;-81
2022/06/03 11:21:47;;;;;;;5.20;4.00;;;;;;;24.32;46.15;99706.88;4998585;28;20041;-81
2022/06/03 11:24:14;;;;;;;5.30;3.75;;;;;;;24.33;46.13;99694.16;5003644;28;20048;-81
2022/06/03 11:26:45;;;;;;;8.98;3.50;;;;;;;24.30;45.37;99702.72;5014118;28;20057;-81
2022/06/03 11:29:17;;;;;;;3.42;3.05;;;;;;;24.27;45.68;99707.59;5019721;28;20412;-80
2022/06/03 11:31:46;;;;;;;3.38;3.08;;;;;;;24.37;45.10;99703.47;5012993;28;20452;-79
2022/06/03 11:34:32;;;;;;;3.83;3.40;;;;;;;24.25;45.27;99704.25;5006693;28;20037;-79
2022/06/03 11:37:06;;;;;;;5.05;3.60;;;;;;;24.37;45.13;99704.31;4971169;28;20045;-77
2022/06/03 11:39:38;;;;;;;4.13;3.72;;;;;;;24.40;46.10;99700.31;5009196;28;20049;-77
2022/06/03 11:42:10;;;;;;;3.58;3.20;;;;;;;24.50;45.37;99695.22;5018363;28;20464;-77
2022/06/03 11:44:47;;;;;;;3.58;3.22;;;;;;;24.53;45.39;99696.63;5007363;28;20092;-77
2022/06/03 11:47:25;;;;;;;3.97;3.63;;;;;;;24.60;45.32;99700.91;4998898;28;20053;-77
2022/06/03 11:49:52;;;;;;;5.55;3.38;;;;;;;24.66;45.54;99699.97;4987749;28;20049;-78
2022/06/03 11:52:19;;;;;;;5.13;3.60;;;;;;;24.76;46.15;99687.72;5015589;28;20434;-77
2022/06/03 11:54:45;;;;;;;3.63;3.33;;;;;;;24.74;46.51;99663.50;5009537;28;20037;-77
2022/06/03 11:57:13;;;;;;;4.75;3.20;;;;;;;24.86;45.05;99667.09;4994531;28;20121;-77
2022/06/03 11:59:50;;;;;;;4.03;2.78;;;;;;;24.81;44.80;99661.53;4991056;28;20378;-77
2022/06/03 12:02:38;;;;;;;4.80;3.10;;;;;;;24.80;44.37;99657.13;4996027;28;20050;-77
2022/06/03 12:06:00;;;;;;;4.45;2.95;;;;;;;24.72;44.45;99654.78;4976594;28;20075;-77
2022/06/03 12:08:57;;;;;;;4.00;2.70;;;;;;;24.89;44.39;99657.66;4919397;28;20041;-77
2022/06/03 12:14:38;;;;;;;3.00;2.80;;;;;;;25.00;44.16;99636.97;4963070;28;20053;-77
2022/06/03 12:17:10;;;;;;;3.05;2.78;;;;;;;25.00;43.44;99636.97;5017449;28;20060;-81
2022/06/03 12:19:43;;;;;;;16.55;3.53;;;;;;;25.04;44.86;99628.13;5023599;28;20053;-81
2022/06/03 12:22:21;;;;;;;;;;;;;;;24.95;44.76;99629.53;4993758;28;20044;-81
2022/06/03 12:25:34;;;;;;;5.20;3.08;;;;;;;25.10;44.85;99620.94;4958397;28;19928;-81
2022/06/03 12:28:03;;;;;;;4.22;3.03;;;;;;;25.26;44.36;99624.84;4975492;28;20061;-81
2022/06/03 12:30:52;;;;;;;11.38;3.30;;;;;;;25.23;44.93;99623.44;5005417;28;20051;-81
2022/06/03 12:33:28;;;;;;;4.30;2.95;;;;;;;25.23;44.57;99630.75;4959166;28;20172;-81
2022/06/03 12:36:04;;;;;;;4.68;3.28;;;;;;;25.30;44.17;99618.69;5018498;28;20045;-79
2022/06/03 12:39:22;;;;;;;5.32;3.47;;;;;;;25.21;44.55;99622.00;4969455;28;20038;-79
2022/06/03 12:41:48;;;;;;;6.70;3.30;;;;;;;25.26;44.46;99620.22;4911803;28;20050;-79
2022/06/03 12:44:35;;;;;;;9.52;3.25;;;;;;;25.21;44.71;99622.00;5010730;28;20693;-79
2022/06/03 12:47:24;;;;;;;4.03;3.17;;;;;;;25.19;45.05;99626.84;4982565;28;20433;-79
2022/06/03 12:50:28;;;;;;;3.28;2.97;;;;;;;25.23;45.09;99625.31;4949686;28;20113;-79
2022/06/03 12:53:21;;;;;;;31.10;4.40;;;;;;;25.32;46.05;99621.19;4924225;28;20069;-79
2022/06/03 12:55:58;;;;;;;7.65;3.35;;;;;;;25.35;46.48;99618.00;4956216;28;20048;-79
2022/06/03 12:58:45;;;;;;;3.42;3.10;;;;;;;25.42;45.79;99626.03;4974651;28;20052;-79
2022/06/03 13:01:12;;;;;;;4.35;3.20;;;;;;;25.52;45.00;99621.63;4959125;28;20210;-79
2022/06/03 13:03:41;;;;;;;3.50;3.20;;;;;;;25.52;44.95;99624.34;5005986;28;20477;-79
2022/06/03 13:06:09;;;;;;;4.93;3.63;;;;;;;25.54;44.75;99630.38;5014100;28;20088;-79
2022/06/03 13:11:26;;;;;;;5.18;3.42;;;;;;;25.55;45.31;99633.94;4969248;28;20064;-79
2022/06/03 13:13:56;;;;;;;4.85;3.45;;;;;;;25.56;45.62;99632.84;5018211;28;20152;-79
2022/06/03 13:16:25;;;;;;;3.70;3.30;;;;;;;25.59;45.20;99635.09;4993847;28;20397;-79